Time;durP1;ratioP1;P1;durP2;ratioP2;P2;SDS_P1;SDS_P2;PMS_P1;PMS_P2;Temp;Humidity;BMP_temperature;BMP_pressure;BME280_temperature;BME280_humidity;BME280_pressure;Samples;Min_cycle;Max_cycle;Signal;HPM_P1;HPM_P2
2023/08/05 00:00:47;;;;;;;9.33;6.40;;;15.90;99.90;;;;;;4991259;28;20937;-66
2023/08/05 00:03:15;;;;;;;6.57;5.87;;;15.80;99.90;;;;;;4990030;28;20516;-66
2023/08/05 00:05:44;;;;;;;7.10;6.40;;;15.80;99.90;;;;;;4978972;28;20447;-66
2023/08/05 00:08:12;;;;;;;7.30;6.10;;;15.80;99.90;;;;;;4972126;28;20514;-65
2023/08/05 00:10:43;;;;;;;10.10;6.30;;;15.70;99.90;;;;;;4971974;28;20502;-67
2023/08/05 00:13:11;;;;;;;9.60;6.17;;;15.70;99.90;;;;;;4970490;28;20463;-65
2023/08/05 00:15:39;;;;;;;9.17;6.50;;;15.80;99.90;;;;;;4971791;28;20476;-66
2023/08/05 00:18:08;;;;;;;9.60;5.73;;;15.70;99.90;;;;;;4971738;28;20479;-67
2023/08/05 00:20:36;;;;;;;8.60;6.17;;;15.80;99.90;;;;;;4972139;28;20475;-66
2023/08/05 00:23:04;;;;;;;7.03;5.83;;;15.80;99.90;;;;;;4971691;28;20525;-66
2023/08/05 00:25:33;;;;;;;8.37;6.10;;;15.80;99.90;;;;;;4971642;28;20500;-66
2023/08/05 00:28:00;;;;;;;6.23;5.53;;;15.80;99.90;;;;;;4971872;28;20445;-65
2023/08/05 00:30:29;;;;;;;7.43;6.63;;;15.80;99.90;;;;;;4972211;28;20461;-66
2023/08/05 00:32:57;;;;;;;9.83;7.10;;;15.80;99.90;;;;;;4970700;28;20443;-66
2023/08/05 00:35:26;;;;;;;6.57;5.90;;;15.70;99.90;;;;;;4971688;28;21055;-67
2023/08/05 00:37:54;;;;;;;7.63;6.83;;;15.80;99.90;;;;;;4972565;28;20515;-67
2023/08/05 00:40:22;;;;;;;8.13;5.90;;;15.80;99.90;;;;;;4971803;28;20462;-66
2023/08/05 00:42:50;;;;;;;7.17;6.50;;;15.70;99.90;;;;;;4970074;28;20465;-66
2023/08/05 00:45:18;;;;;;;8.97;6.47;;;15.70;99.90;;;;;;4971994;28;20495;-67
2023/08/05 00:47:47;;;;;;;7.63;6.70;;;15.70;99.90;;;;;;4973064;28;20447;-66
2023/08/05 00:50:15;;;;;;;6.57;5.97;;;15.60;99.90;;;;;;4975741;28;20455;-65
2023/08/05 00:52:45;;;;;;;7.20;6.50;;;15.60;99.90;;;;;;4974276;28;20455;-65
2023/08/05 00:55:13;;;;;;;7.13;6.43;;;15.70;99.90;;;;;;4976104;28;20560;-67
2023/08/05 00:57:41;;;;;;;13.00;6.93;;;15.60;99.90;;;;;;4975664;28;21013;-66
2023/08/05 01:00:10;;;;;;;8.20;6.17;;;15.60;99.90;;;;;;4975288;28;20979;-65
2023/08/05 01:02:38;;;;;;;7.97;6.03;;;15.60;99.90;;;;;;4974172;28;20446;-66
2023/08/05 01:05:06;;;;;;;7.10;6.17;;;15.50;99.90;;;;;;4974787;28;20478;-66
2023/08/05 01:07:36;;;;;;;9.03;6.70;;;15.40;99.90;;;;;;4974890;28;20446;-66
2023/08/05 01:10:07;;;;;;;10.07;6.50;;;15.40;99.90;;;;;;4975335;28;21010;-65
2023/08/05 01:12:35;;;;;;;6.83;6.20;;;15.40;99.90;;;;;;4991331;28;20471;-66
2023/08/05 01:15:03;;;;;;;9.07;5.60;;;15.50;99.90;;;;;;4994301;28;20472;-66
2023/08/05 01:17:31;;;;;;;8.53;5.90;;;15.50;99.90;;;;;;4994320;28;21080;-66
2023/08/05 01:20:00;;;;;;;9.00;6.73;;;15.50;99.90;;;;;;4993975;28;20476;-65
2023/08/05 01:22:38;;;;;;;7.27;5.10;;;15.50;99.90;;;;;;4993089;28;20891;-65
2023/08/05 01:25:32;;;;;;;6.20;5.60;;;15.40;99.90;;;;;;4993549;28;21159;-66
2023/08/05 01:28:03;;;;;;;8.03;7.10;;;15.40;99.90;;;;;;4980314;28;20447;-65
2023/08/05 01:30:32;;;;;;;9.33;6.17;;;15.30;99.90;;;;;;4973914;28;20897;-66
2023/08/05 01:33:01;;;;;;;6.23;5.47;;;15.40;99.90;;;;;;4972891;28;20833;-65
2023/08/05 01:35:30;;;;;;;7.07;5.93;;;15.40;99.90;;;;;;4973902;28;20471;-65
2023/08/05 01:37:58;;;;;;;7.60;6.80;;;15.40;99.90;;;;;;4973718;28;20571;-65
2023/08/05 01:40:28;;;;;;;8.83;6.37;;;15.40;99.90;;;;;;4973849;28;20922;-65
2023/08/05 01:42:57;;;;;;;7.67;5.43;;;15.40;99.90;;;;;;4972734;28;20454;-65
2023/08/05 01:45:26;;;;;;;9.43;4.97;;;15.50;99.90;;;;;;4988700;28;20474;-65
2023/08/05 01:47:54;;;;;;;6.27;5.67;;;15.50;99.90;;;;;;4993462;28;20442;-65
2023/08/05 01:50:23;;;;;;;9.10;6.00;;;15.50;99.90;;;;;;4991757;28;20508;-65
2023/08/05 01:52:53;;;;;;;6.57;5.97;;;15.50;99.90;;;;;;4972709;28;20507;-65
2023/08/05 01:55:21;;;;;;;6.97;6.27;;;15.50;99.90;;;;;;4973856;28;21003;-64
2023/08/05 01:57:49;;;;;;;9.10;6.23;;;15.60;99.90;;;;;;4974075;28;20476;-64
2023/08/05 02:00:20;;;;;;;6.53;5.93;;;15.70;99.90;;;;;;4972882;28;20931;-65
2023/08/05 02:02:49;;;;;;;6.80;6.10;;;15.60;99.90;;;;;;4972585;28;20440;-65
2023/08/05 02:05:18;;;;;;;7.10;6.40;;;15.60;99.90;;;;;;4981983;28;20503;-65
2023/08/05 02:07:46;;;;;;;6.77;6.07;;;15.70;99.90;;;;;;4992527;28;20543;-66
2023/08/05 02:10:14;;;;;;;8.00;6.50;;;15.60;99.90;;;;;;4992655;28;20509;-65
2023/08/05 02:12:42;;;;;;;8.57;6.57;;;15.70;99.90;;;;;;4991449;28;20754;-65
2023/08/05 02:15:11;;;;;;;6.60;6.00;;;15.60;99.90;;;;;;4992603;28;20471;-65
2023/08/05 02:17:39;;;;;;;6.00;5.40;;;15.60;99.90;;;;;;4992506;28;20501;-64
2023/08/05 02:20:09;;;;;;;7.37;6.50;;;15.60;99.90;;;;;;4992618;28;20450;-65
2023/08/05 02:22:37;;;;;;;8.83;6.00;;;15.50;99.90;;;;;;4990179;28;20467;-65
2023/08/05 02:25:06;;;;;;;6.90;6.00;;;15.60;99.90;;;;;;4992666;28;20555;-65
2023/08/05 02:27:34;;;;;;;7.33;5.57;;;15.70;99.90;;;;;;4992752;28;20449;-65
2023/08/05 02:30:02;;;;;;;7.93;5.50;;;15.60;99.90;;;;;;4992648;28;20436;-64
2023/08/05 02:32:30;;;;;;;8.37;5.90;;;15.60;99.90;;;;;;4991551;28;20450;-64
2023/08/05 02:34:58;;;;;;;10.10;6.50;;;15.60;99.90;;;;;;4991928;28;20875;-65
2023/08/05 02:37:28;;;;;;;7.47;6.10;;;15.60;99.90;;;;;;4990666;28;20505;-65
2023/08/05 02:39:56;;;;;;;8.00;5.93;;;15.50;99.90;;;;;;4991967;28;20475;-65
2023/08/05 02:42:24;;;;;;;7.87;6.20;;;15.40;99.90;;;;;;4991114;28;20444;-64
2023/08/05 02:44:52;;;;;;;7.10;6.40;;;15.30;99.90;;;;;;4991643;28;20560;-65
2023/08/05 02:47:20;;;;;;;10.33;6.60;;;15.20;99.90;;;;;;4991941;28;20538;-65
2023/08/05 02:49:48;;;;;;;7.03;6.27;;;15.10;99.90;;;;;;4991733;28;20449;-65
2023/08/05 02:52:16;;;;;;;11.90;7.30;;;15.10;99.90;;;;;;4991368;28;21311;-64
2023/08/05 02:54:45;;;;;;;9.73;6.13;;;15.10;99.90;;;;;;4979761;28;20475;-65
2023/08/05 02:57:13;;;;;;;7.53;6.83;;;15.20;99.90;;;;;;4972414;28;20470;-64
2023/08/05 02:59:41;;;;;;;8.57;6.47;;;15.20;99.90;;;;;;4972327;28;20483;-65
2023/08/05 03:02:09;;;;;;;10.07;6.63;;;15.20;99.90;;;;;;4971789;28;20502;-65
2023/08/05 03:04:37;;;;;;;7.57;6.43;;;15.20;99.90;;;;;;4971555;28;20495;-65
2023/08/05 03:07:05;;;;;;;7.13;5.97;;;15.20;99.90;;;;;;4972420;28;20504;-64
2023/08/05 03:09:33;;;;;;;7.23;6.03;;;15.30;99.90;;;;;;4972374;28;20812;-64
2023/08/05 03:12:07;;;;;;;8.53;6.90;;;15.30;99.90;;;;;;4988690;28;20486;-63
2023/08/05 03:14:35;;;;;;;9.27;6.70;;;15.20;99.90;;;;;;4990458;28;20535;-65
2023/08/05 03:17:03;;;;;;;7.90;6.10;;;15.30;99.90;;;;;;4991487;28;20446;-65
2023/08/05 03:19:31;;;;;;;14.13;6.80;;;15.30;99.90;;;;;;4991365;28;20556;-65
2023/08/05 03:21:59;;;;;;;7.23;6.00;;;15.30;99.90;;;;;;4991247;28;20447;-65
2023/08/05 03:24:27;;;;;;;6.97;6.27;;;15.30;99.90;;;;;;4990175;28;20468;-65
2023/08/05 03:26:55;;;;;;;9.10;6.60;;;15.30;99.90;;;;;;4989440;28;20455;-65
2023/08/05 03:29:24;;;;;;;6.80;6.20;;;15.20;99.90;;;;;;4991302;28;20483;-64
2023/08/05 03:31:53;;;;;;;7.30;6.60;;;15.20;99.90;;;;;;4991139;28;20475;-65
2023/08/05 03:34:23;;;;;;;10.50;7.10;;;15.30;99.90;;;;;;4989937;28;20472;-65
2023/08/05 03:36:52;;;;;;;8.17;6.90;;;15.30;99.90;;;;;;4991570;28;20430;-65
2023/08/05 03:39:20;;;;;;;7.90;7.10;;;15.40;99.90;;;;;;4990928;28;20733;-65
2023/08/05 03:41:48;;;;;;;8.53;7.03;;;15.30;99.90;;;;;;4990884;28;20821;-64
2023/08/05 03:44:16;;;;;;;9.67;6.97;;;15.30;99.90;;;;;;4988016;28;20470;-65
2023/08/05 03:46:47;;;;;;;7.90;6.83;;;15.40;99.90;;;;;;4990917;28;20816;-65
2023/08/05 03:49:15;;;;;;;9.30;7.70;;;15.40;99.90;;;;;;4990952;28;20442;-65
2023/08/05 03:51:43;;;;;;;9.77;6.70;;;15.30;99.90;;;;;;4978179;28;20454;-65
2023/08/05 03:54:11;;;;;;;6.93;6.33;;;15.40;99.90;;;;;;4970105;28;20505;-65
2023/08/05 03:56:39;;;;;;;7.30;6.57;;;15.40;99.90;;;;;;4971556;28;20530;-63
2023/08/05 03:59:07;;;;;;;6.57;5.90;;;15.50;99.90;;;;;;4971458;28;20483;-64
2023/08/05 04:01:35;;;;;;;8.90;6.57;;;15.50;99.90;;;;;;4971539;28;20472;-65
2023/08/05 04:04:05;;;;;;;6.50;5.70;;;15.50;99.90;;;;;;4970004;28;20477;-64
2023/08/05 04:06:33;;;;;;;9.00;6.83;;;15.60;99.90;;;;;;4971232;28;20445;-65
2023/08/05 04:09:01;;;;;;;6.83;6.20;;;15.50;99.90;;;;;;4971209;28;20467;-63
2023/08/05 04:11:29;;;;;;;7.07;5.87;;;15.50;99.90;;;;;;4971243;28;20547;-65
2023/08/05 04:13:58;;;;;;;7.00;5.83;;;15.60;99.90;;;;;;4970179;28;20530;-64
2023/08/05 04:16:27;;;;;;;7.30;6.30;;;15.50;99.90;;;;;;4971323;28;20437;-65
2023/08/05 04:18:55;;;;;;;6.03;5.43;;;15.50;99.90;;;;;;4971027;28;20488;-65
2023/08/05 04:21:30;;;;;;;7.10;6.40;;;15.50;99.90;;;;;;4972520;28;20455;-64
2023/08/05 04:23:58;;;;;;;8.70;6.57;;;15.50;99.90;;;;;;4969979;28;20549;-65
2023/08/05 04:26:27;;;;;;;6.93;6.13;;;15.50;99.90;;;;;;4971343;28;20508;-65
2023/08/05 04:28:55;;;;;;;7.70;6.20;;;15.50;99.90;;;;;;4971109;28;20440;-64
2023/08/05 04:31:23;;;;;;;8.47;6.90;;;15.40;99.90;;;;;;4971179;28;20431;-65
2023/08/05 04:33:51;;;;;;;7.60;6.60;;;15.30;99.90;;;;;;4969744;28;20554;-63
2023/08/05 04:36:19;;;;;;;11.60;7.57;;;15.30;99.90;;;;;;4971091;28;20457;-65
2023/08/05 04:38:48;;;;;;;9.67;7.60;;;15.40;99.90;;;;;;4972119;28;20542;-65
2023/08/05 04:41:16;;;;;;;7.27;6.13;;;15.40;99.90;;;;;;4970854;28;20451;-64
2023/08/05 04:43:44;;;;;;;8.40;6.83;;;15.50;99.90;;;;;;4969664;28;20920;-65
2023/08/05 04:46:12;;;;;;;7.07;6.37;;;15.50;99.90;;;;;;4970657;28;21097;-64
2023/08/05 04:48:40;;;;;;;8.10;6.63;;;15.50;99.90;;;;;;4970908;28;20540;-64
2023/08/05 04:51:08;;;;;;;10.60;7.00;;;15.50;99.90;;;;;;4971118;28;20514;-65
2023/08/05 04:53:37;;;;;;;11.47;7.00;;;15.50;99.90;;;;;;4969552;28;20479;-64
2023/08/05 04:56:06;;;;;;;8.90;6.90;;;15.50;99.90;;;;;;4971948;28;20554;-65
2023/08/05 04:58:34;;;;;;;10.93;7.10;;;15.50;99.90;;;;;;4970758;28;20453;-65
2023/08/05 05:01:05;;;;;;;7.63;6.77;;;15.40;99.90;;;;;;4970886;28;20483;-65
2023/08/05 05:03:33;;;;;;;8.40;6.50;;;15.50;99.90;;;;;;4969386;28;20467;-65
2023/08/05 05:06:04;;;;;;;6.83;6.17;;;15.50;99.90;;;;;;4971003;28;20449;-64
2023/08/05 05:08:33;;;;;;;7.70;6.70;;;15.50;99.90;;;;;;4970544;28;20451;-65
2023/08/05 05:11:01;;;;;;;8.20;6.70;;;15.60;99.90;;;;;;4971537;28;20527;-64
2023/08/05 05:13:30;;;;;;;8.40;7.17;;;15.60;99.90;;;;;;4969115;28;20492;-65
2023/08/05 05:15:58;;;;;;;7.80;6.00;;;15.70;99.90;;;;;;4970693;28;20472;-65
2023/08/05 05:18:26;;;;;;;6.80;6.10;;;15.70;99.90;;;;;;4970456;28;20444;-65
2023/08/05 05:20:54;;;;;;;7.27;6.33;;;15.80;99.90;;;;;;4970434;28;21043;-65
2023/08/05 05:23:26;;;;;;;6.43;5.73;;;15.80;99.90;;;;;;4969336;28;20804;-66
2023/08/05 05:25:54;;;;;;;6.63;5.90;;;15.90;99.90;;;;;;4970628;28;20450;-65
2023/08/05 05:28:23;;;;;;;7.23;6.27;;;16.00;99.90;;;;;;4971822;28;20515;-65
2023/08/05 05:30:53;;;;;;;7.03;6.30;;;16.00;99.90;;;;;;4970498;28;20440;-65
2023/08/05 05:33:21;;;;;;;5.67;5.07;;;16.00;99.90;;;;;;4969350;28;20472;-64
2023/08/05 05:35:53;;;;;;;6.00;5.40;;;16.00;99.90;;;;;;4973433;28;20452;-65
2023/08/05 05:38:21;;;;;;;6.43;5.80;;;16.00;99.90;;;;;;4973973;28;21223;-65
2023/08/05 05:40:49;;;;;;;7.20;6.43;;;16.00;99.90;;;;;;4973611;28;20520;-65
2023/08/05 05:43:19;;;;;;;6.93;6.03;;;15.90;99.90;;;;;;4973339;28;20554;-66
2023/08/05 05:45:48;;;;;;;9.33;6.90;;;15.90;99.90;;;;;;4993042;28;21020;-65
2023/08/05 05:48:18;;;;;;;6.70;6.10;;;15.90;99.90;;;;;;4993076;28;20446;-65
2023/08/05 05:50:46;;;;;;;8.10;6.43;;;16.00;99.90;;;;;;4988064;28;20449;-64
2023/08/05 05:53:14;;;;;;;8.97;5.40;;;16.00;99.90;;;;;;4972283;28;20440;-64
2023/08/05 05:55:48;;;;;;;6.77;5.30;;;16.10;99.90;;;;;;4971464;28;20923;-65
2023/08/05 05:58:16;;;;;;;6.40;5.80;;;16.10;99.90;;;;;;4973710;28;20535;-65
2023/08/05 06:00:44;;;;;;;9.30;6.10;;;16.10;99.90;;;;;;4973508;28;20570;-65
2023/08/05 06:03:12;;;;;;;7.03;6.00;;;16.10;99.90;;;;;;4972013;28;20973;-65
2023/08/05 06:05:44;;;;;;;7.20;6.27;;;16.10;99.90;;;;;;4985381;28;20447;-65
2023/08/05 06:08:12;;;;;;;6.90;5.37;;;16.30;99.90;;;;;;4993104;28;20561;-64
2023/08/05 06:10:40;;;;;;;6.63;5.83;;;16.40;99.90;;;;;;4992939;28;20457;-65
2023/08/05 06:13:08;;;;;;;6.07;5.43;;;16.50;99.90;;;;;;4991591;28;20543;-65
2023/08/05 06:15:39;;;;;;;6.07;5.57;;;16.60;99.90;;;;;;4992960;28;20507;-65
2023/08/05 06:18:10;;;;;;;7.27;5.83;;;16.70;99.90;;;;;;4992859;28;20445;-65
2023/08/05 06:20:38;;;;;;;6.60;5.23;;;16.60;99.90;;;;;;4991295;28;20480;-65
2023/08/05 06:23:08;;;;;;;10.03;5.67;;;16.70;99.90;;;;;;4972406;28;20443;-66
2023/08/05 06:25:37;;;;;;;5.50;5.00;;;16.80;99.90;;;;;;4973383;28;20448;-65
2023/08/05 06:28:05;;;;;;;6.40;5.10;;;16.80;99.90;;;;;;4973192;28;20444;-64
2023/08/05 06:30:34;;;;;;;5.83;5.23;;;16.80;99.90;;;;;;4972921;28;20445;-66
2023/08/05 06:33:02;;;;;;;7.60;5.73;;;16.90;99.90;;;;;;4971709;28;20865;-65
2023/08/05 06:35:30;;;;;;;5.53;5.03;;;16.90;99.90;;;;;;4972602;28;20471;-65
2023/08/05 06:37:58;;;;;;;5.97;5.37;;;16.90;99.90;;;;;;4974065;28;20447;-65
2023/08/05 06:40:27;;;;;;;7.13;5.10;;;17.10;99.90;;;;;;4972829;28;20476;-65
2023/08/05 06:42:56;;;;;;;5.60;5.10;;;17.20;99.90;;;;;;4971641;28;20458;-66
2023/08/05 06:45:24;;;;;;;7.60;5.37;;;17.20;99.90;;;;;;4972150;28;20479;-66
2023/08/05 06:47:52;;;;;;;6.43;5.23;;;17.10;99.90;;;;;;4972547;28;20444;-66
2023/08/05 06:50:20;;;;;;;5.90;4.80;;;17.10;99.90;;;;;;4973627;28;20532;-66
2023/08/05 06:52:48;;;;;;;7.53;5.30;;;17.10;99.90;;;;;;4971461;28;20477;-63
2023/08/05 06:55:17;;;;;;;6.20;5.60;;;17.10;99.90;;;;;;4972486;28;21243;-63
2023/08/05 06:57:48;;;;;;;6.30;5.07;;;17.10;99.90;;;;;;4972446;28;20461;-63
2023/08/05 07:00:16;;;;;;;5.97;5.17;;;17.30;99.90;;;;;;4972305;28;20444;-64
2023/08/05 07:02:44;;;;;;;6.20;4.40;;;17.20;99.90;;;;;;4971461;28;20473;-63
2023/08/05 07:05:12;;;;;;;7.93;6.00;;;17.40;99.90;;;;;;4986015;28;20477;-65
2023/08/05 07:07:41;;;;;;;5.20;4.70;;;17.40;99.90;;;;;;4991694;28;20833;-64
2023/08/05 07:10:11;;;;;;;7.57;6.20;;;17.40;99.90;;;;;;4991483;28;20448;-64
2023/08/05 07:12:39;;;;;;;8.13;6.87;;;17.40;99.90;;;;;;4990300;28;20516;-63
2023/08/05 07:15:09;;;;;;;11.80;7.10;;;17.30;99.90;;;;;;4991415;28;20462;-64
2023/08/05 07:17:38;;;;;;;6.90;5.83;;;17.30;99.90;;;;;;4991941;28;20449;-63
2023/08/05 07:20:09;;;;;;;8.20;5.70;;;17.30;99.90;;;;;;4989540;28;20537;-66
2023/08/05 07:22:37;;;;;;;6.53;5.90;;;17.30;99.90;;;;;;4989878;28;21048;-66
2023/08/05 07:25:06;;;;;;;9.13;6.43;;;17.30;99.90;;;;;;4991113;28;20474;-66
2023/08/05 07:27:34;;;;;;;6.93;4.97;;;17.30;99.90;;;;;;4991477;28;20447;-63
2023/08/05 07:30:02;;;;;;;5.60;4.90;;;17.40;99.90;;;;;;4991254;28;20447;-63
2023/08/05 07:32:31;;;;;;;5.80;4.93;;;17.70;99.90;;;;;;4985481;28;20490;-63
2023/08/05 07:35:00;;;;;;;5.50;4.13;;;17.90;99.90;;;;;;4971803;28;20938;-63
2023/08/05 07:37:29;;;;;;;4.97;4.47;;;18.00;99.90;;;;;;4971584;28;21021;-63
2023/08/05 07:39:57;;;;;;;6.17;4.20;;;18.30;99.90;;;;;;4971622;28;20448;-64
2023/08/05 07:42:27;;;;;;;5.03;4.37;;;18.40;99.90;;;;;;4970656;28;20483;-64
2023/08/05 07:45:01;;;;;;;4.83;4.43;;;18.60;99.90;;;;;;4971285;28;20475;-65
2023/08/05 07:47:33;;;;;;;5.83;4.80;;;18.50;99.90;;;;;;4984190;28;20484;-65
2023/08/05 07:50:02;;;;;;;6.27;4.10;;;18.50;99.90;;;;;;4990926;28;20971;-65
2023/08/05 07:52:30;;;;;;;5.07;4.53;;;18.60;99.90;;;;;;4970687;28;21036;-63
2023/08/05 07:54:59;;;;;;;5.03;4.50;;;18.60;99.90;;;;;;4971604;28;20518;-66
2023/08/05 07:57:27;;;;;;;6.37;4.10;;;18.60;99.90;;;;;;4970686;28;20985;-65
2023/08/05 07:59:56;;;;;;;6.90;4.30;;;18.70;99.90;;;;;;4971272;28;20508;-65
2023/08/05 08:02:26;;;;;;;5.53;4.97;;;18.70;99.90;;;;;;4969599;28;20460;-65
2023/08/05 08:04:57;;;;;;;4.50;4.10;;;18.70;99.90;;;;;;4976307;28;20298;-65
2023/08/05 08:07:25;;;;;;;5.37;4.83;;;18.70;99.90;;;;;;4990877;28;20458;-65
2023/08/05 08:09:53;;;;;;;8.40;4.77;;;18.70;99.90;;;;;;4990627;28;20478;-65
2023/08/05 08:12:21;;;;;;;5.10;4.60;;;18.80;99.90;;;;;;4990512;28;20459;-66
2023/08/05 08:14:49;;;;;;;4.33;3.70;;;18.90;99.90;;;;;;4990870;28;20467;-65
2023/08/05 08:17:17;;;;;;;6.00;4.17;;;18.90;99.90;;;;;;4990943;28;20462;-65
2023/08/05 08:19:45;;;;;;;6.83;5.10;;;18.70;99.90;;;;;;4991108;28;20474;-65
2023/08/05 08:22:15;;;;;;;5.50;4.57;;;18.80;99.90;;;;;;4988671;28;20509;-64
2023/08/05 08:24:43;;;;;;;4.90;4.03;;;18.90;99.90;;;;;;4989715;28;20490;-66
2023/08/05 08:27:11;;;;;;;4.93;3.70;;;19.10;99.90;;;;;;4990258;28;20442;-65
2023/08/05 08:29:39;;;;;;;4.60;3.20;;;19.20;99.90;;;;;;4990438;28;20442;-66
2023/08/05 08:32:08;;;;;;;4.10;3.77;;;19.40;99.90;;;;;;4989897;28;20443;-65
2023/08/05 08:34:36;;;;;;;3.93;3.63;;;19.40;99.90;;;;;;4989781;28;20528;-65
2023/08/05 08:37:04;;;;;;;7.67;3.37;;;19.40;99.90;;;;;;4988566;28;20458;-66
2023/08/05 08:39:33;;;;;;;3.53;3.23;;;19.50;99.90;;;;;;4990432;28;20516;-66
2023/08/05 08:42:01;;;;;;;3.47;3.17;;;19.70;99.90;;;;;;4989995;28;20914;-65
2023/08/05 08:44:33;;;;;;;6.00;3.93;;;20.00;99.90;;;;;;4989244;28;20469;-66
2023/08/05 08:47:01;;;;;;;6.23;3.20;;;20.10;99.90;;;;;;4990528;28;20442;-65
2023/08/05 08:49:31;;;;;;;3.27;3.00;;;20.20;99.90;;;;;;4990284;28;20470;-66
2023/08/05 08:52:00;;;;;;;4.60;3.10;;;20.50;99.90;;;;;;4990235;28;20546;-66
2023/08/05 08:54:30;;;;;;;4.87;2.60;;;20.80;99.90;;;;;;4976783;28;20471;-67
2023/08/05 08:56:59;;;;;;;3.13;2.83;;;20.90;99.90;;;;;;4970955;28;20922;-66
2023/08/05 08:59:27;;;;;;;3.07;2.80;;;20.90;99.90;;;;;;4971012;28;20964;-66
2023/08/05 09:01:56;;;;;;;3.50;2.77;;;20.60;99.90;;;;;;4971038;28;20479;-66
2023/08/05 09:04:25;;;;;;;4.20;2.87;;;20.60;99.90;;;;;;4971646;28;20459;-66
2023/08/05 09:06:54;;;;;;;3.23;2.93;;;20.60;99.90;;;;;;4989495;28;20446;-64
2023/08/05 09:09:22;;;;;;;2.80;2.60;;;21.20;99.90;;;;;;4992451;28;20868;-65
2023/08/05 09:11:50;;;;;;;3.40;3.20;;;21.70;99.90;;;;;;4994055;28;20541;-67
2023/08/05 09:14:20;;;;;;;3.00;2.70;;;22.00;99.90;;;;;;4992625;28;20462;-66
2023/08/05 09:16:59;;;;;;;5.63;3.60;;;22.40;99.90;;;;;;4993618;28;20509;-66
2023/08/05 09:19:28;;;;;;;3.77;3.10;;;22.20;99.90;;;;;;4982513;28;20477;-66
2023/08/05 09:21:58;;;;;;;4.33;3.10;;;21.60;99.90;;;;;;4974178;28;20480;-66
2023/08/05 09:24:26;;;;;;;8.30;3.60;;;21.30;99.90;;;;;;4973134;28;21022;-66
2023/08/05 09:26:56;;;;;;;3.33;3.07;;;21.10;99.90;;;;;;4974646;28;20443;-66
2023/08/05 09:29:27;;;;;;;4.10;2.90;;;21.00;99.90;;;;;;4974448;28;20889;-66
2023/08/05 09:31:56;;;;;;;3.20;2.90;;;21.00;99.90;;;;;;4973962;28;20459;-66
2023/08/05 09:34:33;;;;;;;3.10;2.90;;;21.10;99.90;;;;;;4974022;28;20514;-66
2023/08/05 09:37:03;;;;;;;4.10;3.37;;;21.80;99.90;;;;;;4981542;28;20451;-65
2023/08/05 09:39:45;;;;;;;4.47;2.97;;;22.20;99.90;;;;;;4981260;28;20459;-66
2023/08/05 09:42:19;;;;;;;4.30;3.37;;;22.20;99.90;;;;;;4989407;28;20478;-66
2023/08/05 09:44:49;;;;;;;5.30;3.00;;;21.80;99.90;;;;;;4992972;28;20489;-66
2023/08/05 09:47:21;;;;;;;3.20;3.00;;;21.70;99.90;;;;;;4993356;28;20443;-66
2023/08/05 09:49:51;;;;;;;3.37;3.10;;;21.70;99.90;;;;;;4993406;28;21143;-66
2023/08/05 09:52:22;;;;;;;3.40;3.10;;;21.70;99.90;;;;;;4991268;28;20545;-66
2023/08/05 09:54:58;;;;;;;3.97;2.97;;;21.60;99.90;;;;;;4993009;28;20467;-66
2023/08/05 09:57:27;;;;;;;3.00;2.70;;;21.80;99.90;;;;;;4993044;28;20443;-66
2023/08/05 09:59:58;;;;;;;5.20;3.60;;;22.40;99.90;;;;;;4993234;28;20449;-66
2023/08/05 10:02:30;;;;;;;2.90;2.60;;;22.90;99.90;;;;;;4992181;28;20485;-67
2023/08/05 10:04:59;;;;;;;3.33;2.63;;;23.90;99.90;;;;;;4988776;28;20467;-65
2023/08/05 10:07:28;;;;;;;3.07;2.80;;;24.10;98.90;;;;;;4993188;28;20443;-65
2023/08/05 10:09:56;;;;;;;3.00;2.67;;;23.80;99.20;;;;;;4992940;28;20538;-66
2023/08/05 10:12:29;;;;;;;2.93;2.63;;;23.30;99.80;;;;;;4992285;28;20466;-64
2023/08/05 10:15:00;;;;;;;3.20;2.90;;;22.90;99.90;;;;;;4993216;28;20459;-66
2023/08/05 10:17:28;;;;;;;2.83;2.40;;;22.40;99.10;;;;;;4993129;28;20529;-65
2023/08/05 10:19:57;;;;;;;2.40;2.20;;;22.30;99.90;;;;;;4992182;28;20482;-66
2023/08/05 10:22:26;;;;;;;2.90;2.60;;;22.40;99.90;;;;;;4979925;28;21163;-64
2023/08/05 10:24:56;;;;;;;2.63;2.40;;;22.30;99.10;;;;;;4973153;28;20491;-65
2023/08/05 10:27:35;;;;;;;3.00;2.30;;;22.10;99.10;;;;;;4972966;28;20546;-65
2023/08/05 10:30:09;;;;;;;2.50;2.30;;;21.80;99.80;;;;;;4973107;28;20494;-65
2023/08/05 10:32:50;;;;;;;4.43;2.37;;;21.70;99.90;;;;;;4971693;28;20440;-64
2023/08/05 10:35:25;;;;;;;3.07;2.67;;;21.80;99.90;;;;;;4973005;28;20463;-65
2023/08/05 10:38:06;;;;;;;2.83;2.63;;;21.90;98.80;;;;;;4979514;28;20458;-65
2023/08/05 10:40:41;;;;;;;2.60;2.40;;;21.90;98.20;;;;;;4992370;28;20448;-66
2023/08/05 10:43:10;;;;;;;2.40;2.23;;;22.00;98.40;;;;;;4990903;28;20547;-66
2023/08/05 10:45:44;;;;;;;4.07;2.10;;;22.20;99.70;;;;;;4992465;28;20521;-66
2023/08/05 10:48:15;;;;;;;2.87;2.50;;;22.60;97.10;;;;;;4992524;28;20537;-65
2023/08/05 10:50:43;;;;;;;2.53;2.33;;;23.00;96.70;;;;;;4992374;28;20446;-64
2023/08/05 10:53:13;;;;;;;3.90;2.60;;;23.10;96.50;;;;;;4990752;28;20918;-65
2023/08/05 10:55:48;;;;;;;4.27;2.53;;;23.00;96.20;;;;;;4989775;28;20545;-65
2023/08/05 10:58:21;;;;;;;4.33;3.17;;;22.80;96.40;;;;;;4992156;28;20450;-65
2023/08/05 11:00:58;;;;;;;2.87;2.60;;;22.60;97.10;;;;;;4991920;28;20443;-65
2023/08/05 11:03:42;;;;;;;2.80;2.60;;;22.40;95.90;;;;;;4990409;28;20481;-65
2023/08/05 11:06:11;;;;;;;2.67;2.47;;;22.50;95.50;;;;;;4990256;28;20455;-66
2023/08/05 11:08:40;;;;;;;2.90;2.57;;;23.00;95.10;;;;;;4991804;28;20434;-65
2023/08/05 11:11:09;;;;;;;3.90;3.10;;;22.90;94.60;;;;;;4989943;28;20469;-65
2023/08/05 11:13:39;;;;;;;2.67;2.47;;;22.70;95.00;;;;;;4990218;28;20475;-65
2023/08/05 11:16:10;;;;;;;4.27;2.70;;;22.90;95.40;;;;;;4991448;28;20446;-65
2023/08/05 11:18:41;;;;;;;2.97;2.50;;;23.60;92.70;;;;;;4991373;28;20980;-64
2023/08/05 11:21:10;;;;;;;2.77;2.57;;;24.30;91.40;;;;;;4991540;28;20435;-65
2023/08/05 11:23:39;;;;;;;3.30;3.00;;;24.50;90.90;;;;;;4990006;28;20482;-65
2023/08/05 11:26:08;;;;;;;3.07;2.73;;;25.20;88.90;;;;;;4991361;28;20470;-65
2023/08/05 11:28:42;;;;;;;2.60;2.40;;;26.00;84.00;;;;;;4989506;28;20455;-65
2023/08/05 11:31:20;;;;;;;5.60;2.83;;;26.70;79.40;;;;;;4991236;28;21097;-65
2023/08/05 11:33:49;;;;;;;2.30;2.10;;;27.50;75.10;;;;;;4989911;28;20458;-65
2023/08/05 11:36:17;;;;;;;2.10;1.90;;;27.90;64.10;;;;;;4991450;28;20453;-65
2023/08/05 11:38:45;;;;;;;2.70;2.23;;;28.40;62.30;;;;;;4991172;28;20774;-66
2023/08/05 11:41:13;;;;;;;2.60;2.40;;;28.80;59.90;;;;;;4991174;28;21012;-65
2023/08/05 11:43:41;;;;;;;3.20;2.90;;;28.70;65.50;;;;;;4987972;28;20486;-65
2023/08/05 11:46:26;;;;;;;3.00;2.60;;;28.00;69.20;;;;;;4991127;28;20446;-64
2023/08/05 11:49:07;;;;;;;4.23;2.90;;;26.50;73.30;;;;;;4984992;28;20552;-65
2023/08/05 11:51:48;;;;;;;3.47;3.17;;;25.60;75.20;;;;;;4982818;28;20843;-65
2023/08/05 11:54:26;;;;;;;2.93;2.73;;;25.20;75.90;;;;;;4989756;28;20459;-65
2023/08/05 11:56:54;;;;;;;4.27;2.73;;;25.60;74.80;;;;;;4991057;28;20438;-65
2023/08/05 11:59:37;;;;;;;3.40;3.10;;;25.60;75.00;;;;;;4990995;28;20446;-66
2023/08/05 12:02:09;;;;;;;3.10;2.80;;;25.70;77.40;;;;;;4990532;28;20548;-66
2023/08/05 12:04:43;;;;;;;2.87;2.67;;;26.40;71.30;;;;;;4986474;28;20542;-64
2023/08/05 12:07:12;;;;;;;2.90;2.70;;;27.80;73.70;;;;;;4971497;28;20930;-66
2023/08/05 12:09:41;;;;;;;3.33;3.13;;;28.30;69.50;;;;;;4971574;28;20458;-66
2023/08/05 12:12:16;;;;;;;3.03;2.53;;;28.50;65.00;;;;;;4971223;28;20541;-66
2023/08/05 12:14:45;;;;;;;2.70;2.50;;;28.30;61.80;;;;;;4971098;28;20455;-66
2023/08/05 12:17:14;;;;;;;2.60;2.40;;;27.70;69.60;;;;;;4971649;28;20440;-65
2023/08/05 12:19:42;;;;;;;2.90;2.70;;;27.80;62.30;;;;;;4971614;28;20438;-67
2023/08/05 12:22:10;;;;;;;3.00;2.80;;;27.40;64.70;;;;;;4983865;28;20466;-66
2023/08/05 12:24:38;;;;;;;2.93;2.70;;;26.90;67.40;;;;;;4989816;28;20568;-66
2023/08/05 12:27:06;;;;;;;2.97;2.77;;;26.30;65.40;;;;;;4990605;28;21044;-67
2023/08/05 12:29:34;;;;;;;2.87;2.57;;;25.60;62.90;;;;;;4990735;28;20457;-65
2023/08/05 12:32:02;;;;;;;3.97;2.67;;;25.30;63.90;;;;;;4990251;28;21004;-65
2023/08/05 12:34:32;;;;;;;3.60;2.70;;;24.90;68.70;;;;;;4989647;28;20463;-66
2023/08/05 12:37:00;;;;;;;2.67;2.47;;;24.90;68.70;;;;;;4987433;28;20459;-66
2023/08/05 12:39:28;;;;;;;2.63;2.43;;;25.00;73.10;;;;;;4971286;28;20510;-66
2023/08/05 12:41:56;;;;;;;3.67;2.97;;;25.10;67.60;;;;;;4971054;28;20451;-66
2023/08/05 12:44:24;;;;;;;2.87;2.63;;;24.80;66.80;;;;;;4972574;28;20487;-66
2023/08/05 12:46:52;;;;;;;2.73;2.47;;;24.50;69.70;;;;;;4974943;28;20984;-66
2023/08/05 12:49:20;;;;;;;3.40;3.07;;;24.50;72.00;;;;;;4974966;28;20961;-66
2023/08/05 12:51:50;;;;;;;3.00;2.70;;;24.70;67.80;;;;;;4974670;28;20855;-66
2023/08/05 12:54:18;;;;;;;2.53;2.33;;;24.70;69.60;;;;;;4984124;28;20491;-66
2023/08/05 12:56:46;;;;;;;2.97;2.60;;;24.60;70.50;;;;;;4994013;28;20442;-67